MSC Davos — A8IG3 — position and weather

sailwx.info

Track history (hours):
 
Tides and Currents Weather Stations Pressure Air Temp Water Temp Dewpoint Dewpoint Depression Visibility Wind Speed Wind Dir Waves Ship Positions

MSC Davos

Last reported at 2015-Apr-17 10:24 UTC. Time now 2015-Apr-18 13:10 UTC.
Position N 32°08' W 117°12'.

Length 210.9 m; beam 32.3 m; draft 12 m.

Type: Cargo ship. MMSI: 636090972.

Date/timePositionNaut miles runAvg speedWind from/ knotsBaromVisibWave heightAir tempDewpointWater temp
2015-Apr-17 10:24N 32°08' W 117°12'1012.0
2015-Apr-17 09:33N 32°15' W 117°20'1211.7
2015-Apr-17 08:33N 32°24' W 117°29'1211.7
2015-Apr-17 07:33N 32°32' W 117°39'1111.0
2015-Apr-17 06:33N 32°41' W 117°47'1211.7
2015-Apr-17 05:33N 32°52' W 117°51'1212.1
2015-Apr-17 04:33N 33°03' W 117°57'1212.2
2015-Apr-17 03:33N 33°14' W 118°03'1211.6
2015-Apr-17 02:33N 33°24' W 118°09'1110.7
2015-Apr-17 01:33N 33°35' W 118°13'9 8.4
2015-Apr-17 00:26N 33°44' W 118°16'1 0.7
2015-Apr-16 23:33N 33°44' W 118°15'0 0.0
2015-Apr-16 22:31N 33°44' W 118°15'0 0.0
2015-Apr-16 21:31N 33°44' W 118°15'0 0.0
2015-Apr-16 20:31N 33°44' W 118°15'0 0.0
2015-Apr-16 19:31N 33°44' W 118°15'0 0.0
2015-Apr-16 18:31N 33°44' W 118°15'0 0.0
2015-Apr-16 17:28N 33°44' W 118°15'0 0.0
2015-Apr-16 16:31N 33°44' W 118°15'0 0.0
2015-Apr-16 15:31N 33°44' W 118°15'0 0.0
2015-Apr-16 14:31N 33°44' W 118°15'0 0.0
2015-Apr-16 13:31N 33°44' W 118°15'0 0.0
2015-Apr-16 12:31N 33°44' W 118°15'0 0.0
2015-Apr-16 11:28N 33°44' W 118°15'0 0.0
2015-Apr-16 10:31N 33°44' W 118°15'0 0.0
2015-Apr-16 09:31N 33°44' W 118°15'0 0.0
2015-Apr-16 08:31N 33°44' W 118°15'0 0.0
2015-Apr-16 07:31N 33°44' W 118°15'0 0.0
2015-Apr-16 06:31N 33°44' W 118°15'0 0.0
2015-Apr-16 05:28N 33°44' W 118°15'0 0.0
2015-Apr-16 04:31N 33°44' W 118°15'0 0.0
2015-Apr-16 03:31N 33°44' W 118°15'0 0.0
2015-Apr-16 02:31N 33°44' W 118°15'0 0.0
2015-Apr-16 01:31N 33°44' W 118°15'0 0.0
2015-Apr-16 00:31N 33°44' W 118°15'0 0.0
2015-Apr-15 23:31N 33°44' W 118°15'0 0.0
2015-Apr-15 22:31N 33°44' W 118°15'0 0.0
2015-Apr-15 21:31N 33°44' W 118°15'0 0.0
2015-Apr-15 20:31N 33°44' W 118°15'0 0.0
2015-Apr-15 19:31N 33°44' W 118°15'0 0.0
2015-Apr-15 18:31N 33°44' W 118°15'0 0.0
2015-Apr-15 17:28N 33°44' W 118°15'0 0.0
2015-Apr-15 16:31N 33°44' W 118°15'0 0.0
2015-Apr-15 15:31N 33°44' W 118°15'0 0.0
2015-Apr-15 14:28N 33°44' W 118°15'0 0.0
2015-Apr-15 13:31N 33°44' W 118°15'0 0.0
2015-Apr-15 12:31N 33°44' W 118°15'0 0.0
2015-Apr-15 11:31N 33°44' W 118°15'0 0.0
2015-Apr-15 10:28N 33°44' W 118°15'0 0.0
2015-Apr-15 09:19N 33°44' W 118°15'0 0.0
2015-Apr-15 08:31N 33°44' W 118°15'0 0.0
2015-Apr-15 07:31N 33°44' W 118°15'0 0.0
2015-Apr-15 06:28N 33°44' W 118°15'0 0.0
2015-Apr-15 05:34N 33°44' W 118°15'0 0.0
2015-Apr-15 04:33N 33°44' W 118°15'0 0.0
2015-Apr-15 03:33N 33°44' W 118°15'1 1.3
2015-Apr-15 02:33N 33°43' W 118°15'5 2.5
2015-Apr-15 00:33N 33°42' W 118°09'0 0.0
2015-Apr-14 23:33N 33°42' W 118°09'0 0.0
2015-Apr-14 22:30N 33°42' W 118°09'0 0.0
2015-Apr-14 21:33N 33°42' W 118°09'0 0.5
2015-Apr-14 20:34N 33°42' W 118°09'9 9.3
2015-Apr-14 19:33N 33°32' W 118°08'1211.4
2015-Apr-14 18:32N 33°21' W 118°03'1111.6
2015-Apr-14 17:33N 33°11' W 117°58'1111.4
2015-Apr-14 16:33N 33°01' W 117°52'1211.7
2015-Apr-14 15:33N 32°49' W 117°50'1212.0
2015-Apr-14 14:33N 32°38' W 117°45'1211.9
2015-Apr-14 13:33N 32°27' W 117°40'1211.7
2015-Apr-14 12:33N 32°16' W 117°35'1211.6
2015-Apr-14 11:29N 32°04' W 117°30'1412.9
2015-Apr-14 10:22N 31°50' W 117°25'1616.1
2015-Apr-14 09:24N 31°35' W 117°19'  
2015-Apr-09 20:00N 15°24' W 096°54'   270 / 101010.010.8 0.530.023.928.0
Track history (hours):
 
Tides and Currents Weather Stations Pressure Air Temp Water Temp Dewpoint Dewpoint Depression Visibility Wind Speed Wind Dir Waves Ship Positions

MSC Davos

Last reported at 2015-Apr-17 10:24 UTC. Time now 2015-Apr-18 13:10 UTC.
Position N 32°08' W 117°12'.

Length 210.9 m; beam 32.3 m; draft 12 m.

Type: Cargo ship. MMSI: 636090972.

Date/timePositionNaut miles runAvg speedWind from/ knotsBaromVisibWave heightAir tempDewpointWater temp
2015-Apr-17 10:24N 32°08' W 117°12'1012.0
2015-Apr-17 09:33N 32°15' W 117°20'1211.7
2015-Apr-17 08:33N 32°24' W 117°29'1211.7
2015-Apr-17 07:33N 32°32' W 117°39'1111.0
2015-Apr-17 06:33N 32°41' W 117°47'1211.7
2015-Apr-17 05:33N 32°52' W 117°51'1212.1
2015-Apr-17 04:33N 33°03' W 117°57'1212.2
2015-Apr-17 03:33N 33°14' W 118°03'1211.6
2015-Apr-17 02:33N 33°24' W 118°09'1110.7
2015-Apr-17 01:33N 33°35' W 118°13'9 8.4
2015-Apr-17 00:26N 33°44' W 118°16'1 0.7
2015-Apr-16 23:33N 33°44' W 118°15'0 0.0
2015-Apr-16 22:31N 33°44' W 118°15'0 0.0
2015-Apr-16 21:31N 33°44' W 118°15'0 0.0
2015-Apr-16 20:31N 33°44' W 118°15'0 0.0
2015-Apr-16 19:31N 33°44' W 118°15'0 0.0
2015-Apr-16 18:31N 33°44' W 118°15'0 0.0
2015-Apr-16 17:28N 33°44' W 118°15'0 0.0
2015-Apr-16 16:31N 33°44' W 118°15'0 0.0
2015-Apr-16 15:31N 33°44' W 118°15'0 0.0
2015-Apr-16 14:31N 33°44' W 118°15'0 0.0
2015-Apr-16 13:31N 33°44' W 118°15'0 0.0
2015-Apr-16 12:31N 33°44' W 118°15'0 0.0
2015-Apr-16 11:28N 33°44' W 118°15'0 0.0
2015-Apr-16 10:31N 33°44' W 118°15'0 0.0
2015-Apr-16 09:31N 33°44' W 118°15'0 0.0
2015-Apr-16 08:31N 33°44' W 118°15'0 0.0
2015-Apr-16 07:31N 33°44' W 118°15'0 0.0
2015-Apr-16 06:31N 33°44' W 118°15'0 0.0
2015-Apr-16 05:28N 33°44' W 118°15'0 0.0
2015-Apr-16 04:31N 33°44' W 118°15'0 0.0
2015-Apr-16 03:31N 33°44' W 118°15'0 0.0
2015-Apr-16 02:31N 33°44' W 118°15'0 0.0
2015-Apr-16 01:31N 33°44' W 118°15'0 0.0
2015-Apr-16 00:31N 33°44' W 118°15'0 0.0
2015-Apr-15 23:31N 33°44' W 118°15'0 0.0
2015-Apr-15 22:31N 33°44' W 118°15'0 0.0
2015-Apr-15 21:31N 33°44' W 118°15'0 0.0
2015-Apr-15 20:31N 33°44' W 118°15'0 0.0
2015-Apr-15 19:31N 33°44' W 118°15'0 0.0
2015-Apr-15 18:31N 33°44' W 118°15'0 0.0
2015-Apr-15 17:28N 33°44' W 118°15'0 0.0
2015-Apr-15 16:31N 33°44' W 118°15'0 0.0
2015-Apr-15 15:31N 33°44' W 118°15'0 0.0
2015-Apr-15 14:28N 33°44' W 118°15'0 0.0
2015-Apr-15 13:31N 33°44' W 118°15'0 0.0
2015-Apr-15 12:31N 33°44' W 118°15'0 0.0
2015-Apr-15 11:31N 33°44' W 118°15'0 0.0
2015-Apr-15 10:28N 33°44' W 118°15'0 0.0
2015-Apr-15 09:19N 33°44' W 118°15'0 0.0
2015-Apr-15 08:31N 33°44' W 118°15'0 0.0
2015-Apr-15 07:31N 33°44' W 118°15'0 0.0
2015-Apr-15 06:28N 33°44' W 118°15'0 0.0
2015-Apr-15 05:34N 33°44' W 118°15'0 0.0
2015-Apr-15 04:33N 33°44' W 118°15'0 0.0
2015-Apr-15 03:33N 33°44' W 118°15'1 1.3
2015-Apr-15 02:33N 33°43' W 118°15'5 2.5
2015-Apr-15 00:33N 33°42' W 118°09'0 0.0
2015-Apr-14 23:33N 33°42' W 118°09'0 0.0
2015-Apr-14 22:30N 33°42' W 118°09'0 0.0
2015-Apr-14 21:33N 33°42' W 118°09'0 0.5
2015-Apr-14 20:34N 33°42' W 118°09'9 9.3
2015-Apr-14 19:33N 33°32' W 118°08'1211.4
2015-Apr-14 18:32N 33°21' W 118°03'1111.6
2015-Apr-14 17:33N 33°11' W 117°58'1111.4
2015-Apr-14 16:33N 33°01' W 117°52'1211.7
2015-Apr-14 15:33N 32°49' W 117°50'1212.0
2015-Apr-14 14:33N 32°38' W 117°45'1211.9
2015-Apr-14 13:33N 32°27' W 117°40'1211.7
2015-Apr-14 12:33N 32°16' W 117°35'1211.6
2015-Apr-14 11:29N 32°04' W 117°30'1412.9
2015-Apr-14 10:22N 31°50' W 117°25'1616.1
2015-Apr-14 09:24N 31°35' W 117°19'  
2015-Apr-09 20:00N 15°24' W 096°54'   270 / 101010.010.8 0.530.023.928.0

Dump ship's entire track history